Terminal Aerodrome Forecast
Issued by NWS

Home | Current Version | Previous Version | Graphics & Text | Print | Product List | Glossary On
Versions: 1 2 3 4 5 6 7 8 9 10 11 12 13 14 15 16
515
FTUS43 KBIS 201139
TAFMOT
TAF
KMOT 201139Z 2012/2112 08005KT P6SM SCT120 BKN200
     FM201800 07010KT P6SM BKN120
     FM210200 VRB05KT P6SM BKN120
     FM210800 27005KT P6SM SCT090=

USA.gov is the U.S. government's official web portal to all federal, state and local government web resources and services.